Time;durP1;ratioP1;P1;durP2;ratioP2;P2;SDS_P1;SDS_P2;PMS_P1;PMS_P2;Temp;Humidity;BMP_temperature;BMP_pressure;BME280_temperature;BME280_humidity;BME280_pressure;Samples;Min_cycle;Max_cycle;Signal;HPM_P1;HPM_P2
2023/09/01 00:00:04;;;;;;;3.53;1.33;;;19.50;99.90;;;;;;4992986;28;20026;-37
2023/09/01 00:02:30;;;;;;;2.47;1.38;;;19.50;99.90;;;;;;4993066;28;20031;-39
2023/09/01 00:04:55;;;;;;;2.47;1.40;;;19.50;99.90;;;;;;4993057;28;20030;-37
2023/09/01 00:07:21;;;;;;;3.22;1.45;;;19.50;99.90;;;;;;4975520;28;20066;-38
2023/09/01 00:09:47;;;;;;;2.05;1.20;;;19.50;99.90;;;;;;4992707;28;20023;-37
2023/09/01 00:12:12;;;;;;;2.13;1.25;;;19.50;99.90;;;;;;4992895;28;20080;-35
2023/09/01 00:14:38;;;;;;;3.08;1.25;;;19.50;99.90;;;;;;4992903;28;20033;-38
2023/09/01 00:17:03;;;;;;;2.15;1.30;;;19.50;99.90;;;;;;4992790;28;20373;-38
2023/09/01 00:19:29;;;;;;;2.40;1.40;;;19.50;99.90;;;;;;4992583;28;20050;-39
2023/09/01 00:21:54;;;;;;;3.47;1.40;;;19.50;99.90;;;;;;4993065;28;20380;-37
2023/09/01 00:24:20;;;;;;;2.55;1.13;;;19.50;99.90;;;;;;4992697;28;20026;-35
2023/09/01 00:26:46;;;;;;;3.67;1.40;;;19.50;99.90;;;;;;4992630;28;20023;-37
2023/09/01 00:29:11;;;;;;;3.20;1.35;;;19.50;99.90;;;;;;4992392;28;20499;-38
2023/09/01 00:31:37;;;;;;;2.08;1.17;;;19.50;99.90;;;;;;4992010;28;20050;-39
2023/09/01 00:34:03;;;;;;;2.28;1.45;;;19.50;99.90;;;;;;4992571;28;20101;-35
2023/09/01 00:36:29;;;;;;;3.00;1.10;;;19.50;99.90;;;;;;4992686;28;20022;-37
2023/09/01 00:38:54;;;;;;;4.95;1.40;;;19.50;99.90;;;;;;4992207;28;20022;-38
2023/09/01 00:41:20;;;;;;;3.63;1.65;;;19.50;99.90;;;;;;4992895;28;20102;-38
2023/09/01 00:43:46;;;;;;;2.60;1.40;;;19.50;99.90;;;;;;4992372;28;20548;-38
2023/09/01 00:46:11;;;;;;;2.72;1.50;;;19.50;99.90;;;;;;4992358;28;20038;-35
2023/09/01 00:48:38;;;;;;;2.30;1.25;;;19.50;99.90;;;;;;4992319;28;20033;-37
2023/09/01 00:51:03;;;;;;;2.33;1.23;;;19.40;99.90;;;;;;4992077;28;20065;-39
2023/09/01 00:53:29;;;;;;;1.70;1.00;;;19.50;99.90;;;;;;4992147;28;20541;-37
2023/09/01 00:55:57;;;;;;;2.25;1.30;;;19.40;99.90;;;;;;4992446;28;20022;-40
2023/09/01 00:58:25;;;;;;;2.58;1.00;;;19.40;99.90;;;;;;4992136;28;20542;-38
2023/09/01 01:00:52;;;;;;;2.13;1.27;;;19.40;99.90;;;;;;4992016;28;20061;-37
2023/09/01 01:03:18;;;;;;;1.30;0.95;;;19.50;99.90;;;;;;4992106;28;20041;-38
2023/09/01 01:06:00;;;;;;;2.47;1.20;;;19.40;99.90;;;;;;4992098;28;20113;-35
2023/09/01 01:08:49;;;;;;;1.40;0.95;;;19.50;99.90;;;;;;4992019;28;20018;-38
2023/09/01 01:11:33;;;;;;;2.63;1.25;;;19.40;99.90;;;;;;4992285;28;20109;-37
2023/09/01 01:14:06;;;;;;;3.40;1.20;;;19.40;99.90;;;;;;4992088;28;20077;-42
2023/09/01 01:16:33;;;;;;;3.00;1.00;;;19.40;99.90;;;;;;4991932;28;20026;-37
2023/09/01 01:19:15;;;;;;;1.73;1.10;;;19.40;99.90;;;;;;4991721;28;20035;-37
2023/09/01 01:21:42;;;;;;;2.30;1.30;;;19.40;99.90;;;;;;4991872;28;20031;-39
2023/09/01 01:24:08;;;;;;;2.78;1.23;;;19.40;99.90;;;;;;4992572;28;20026;-35
2023/09/01 01:26:36;;;;;;;2.17;1.35;;;19.40;99.90;;;;;;4991989;28;20584;-37
2023/09/01 01:29:01;;;;;;;2.85;1.38;;;19.40;99.90;;;;;;4991691;28;20386;-39
2023/09/01 01:31:27;;;;;;;2.47;1.30;;;19.40;99.90;;;;;;4991807;28;20104;-35
2023/09/01 01:34:21;;;;;;;2.47;1.20;;;19.40;99.90;;;;;;4992192;28;20042;-40
2023/09/01 01:36:56;;;;;;;2.90;1.40;;;19.40;99.90;;;;;;4975134;28;20049;-40
2023/09/01 01:39:27;;;;;;;2.15;1.33;;;19.40;99.90;;;;;;4991577;28;20093;-38
2023/09/01 01:42:02;;;;;;;2.13;1.30;;;19.40;99.90;;;;;;4974319;28;20488;-36
2023/09/01 01:44:31;;;;;;;1.88;1.00;;;19.40;99.90;;;;;;4993605;28;20038;-36
2023/09/01 01:46:57;;;;;;;2.05;1.20;;;19.40;99.90;;;;;;4995701;28;20058;-38
2023/09/01 01:49:22;;;;;;;1.10;1.00;;;19.40;99.90;;;;;;4995413;28;20064;-39
2023/09/01 01:51:48;;;;;;;1.83;1.20;;;19.40;99.90;;;;;;4995497;28;20445;-37
2023/09/01 01:54:14;;;;;;;1.90;1.20;;;19.40;99.90;;;;;;4995510;28;20034;-38
2023/09/01 01:56:39;;;;;;;2.17;1.17;;;19.40;99.90;;;;;;4995705;28;20114;-39
2023/09/01 01:59:05;;;;;;;1.88;1.20;;;19.40;99.90;;;;;;4995147;28;20118;-37
2023/09/01 02:01:31;;;;;;;3.33;1.13;;;19.40;99.90;;;;;;4995361;28;20113;-36
2023/09/01 02:03:58;;;;;;;2.03;1.15;;;19.40;99.90;;;;;;4995343;28;20105;-40
2023/09/01 02:06:23;;;;;;;1.77;1.15;;;19.40;99.90;;;;;;4995388;28;20080;-37
2023/09/01 02:08:49;;;;;;;2.05;1.10;;;19.40;99.90;;;;;;4994966;28;20257;-34
2023/09/01 02:11:15;;;;;;;1.88;1.17;;;19.40;99.90;;;;;;4995182;28;20061;-42
2023/09/01 02:13:41;;;;;;;3.75;1.20;;;19.40;99.90;;;;;;4995127;28;20110;-37
2023/09/01 02:16:07;;;;;;;2.97;1.10;;;19.40;99.90;;;;;;4995466;28;20034;-35
2023/09/01 02:18:33;;;;;;;1.80;1.10;;;19.40;99.90;;;;;;4994976;28;20053;-35
2023/09/01 02:21:00;;;;;;;1.50;1.00;;;19.40;99.90;;;;;;4994810;28;20416;-37
2023/09/01 02:23:25;;;;;;;1.85;1.23;;;19.40;99.90;;;;;;4994790;28;20084;-37
2023/09/01 02:25:51;;;;;;;2.83;1.35;;;19.40;99.90;;;;;;4994936;28;20027;-34
2023/09/01 02:28:17;;;;;;;2.20;1.10;;;19.40;99.90;;;;;;4994899;28;20027;-39
2023/09/01 02:30:43;;;;;;;1.85;1.10;;;19.40;99.90;;;;;;4994657;28;20066;-37
2023/09/01 02:33:08;;;;;;;1.60;0.93;;;19.40;99.90;;;;;;4994660;28;20030;-39
2023/09/01 02:35:44;;;;;;;3.15;1.13;;;19.40;99.90;;;;;;4994684;28;20098;-38
2023/09/01 02:38:13;;;;;;;1.80;1.20;;;19.40;99.90;;;;;;4994671;28;20041;-37
2023/09/01 02:40:39;;;;;;;1.77;1.27;;;19.40;99.90;;;;;;4994466;28;20014;-37
2023/09/01 02:43:05;;;;;;;1.27;1.00;;;19.40;99.90;;;;;;4994449;28;20032;-37
2023/09/01 02:45:31;;;;;;;1.58;1.10;;;19.40;99.90;;;;;;4994632;28;20022;-38
2023/09/01 02:47:57;;;;;;;1.33;1.00;;;19.40;99.90;;;;;;4994542;28;20030;-38
2023/09/01 02:50:23;;;;;;;1.73;1.17;;;19.40;99.90;;;;;;4994204;28;20030;-41
2023/09/01 02:52:48;;;;;;;1.15;0.85;;;19.40;99.90;;;;;;4994393;28;20403;-36
2023/09/01 02:55:17;;;;;;;2.42;1.00;;;19.40;99.90;;;;;;4994299;28;20031;-38
2023/09/01 02:57:43;;;;;;;3.15;1.05;;;19.40;99.90;;;;;;4994291;28;20027;-42
2023/09/01 03:00:18;;;;;;;2.90;1.23;;;19.40;99.90;;;;;;4994102;28;20065;-37
2023/09/01 03:02:44;;;;;;;2.05;1.13;;;19.40;99.90;;;;;;4994103;28;20026;-37
2023/09/01 03:05:10;;;;;;;1.90;1.20;;;19.40;99.90;;;;;;4994272;28;20093;-36
2023/09/01 03:07:40;;;;;;;2.85;1.30;;;19.40;99.90;;;;;;4994182;28;20105;-38
2023/09/01 03:10:07;;;;;;;1.58;0.95;;;19.40;99.90;;;;;;4993944;28;20109;-40
2023/09/01 03:12:34;;;;;;;3.03;1.10;;;19.40;99.90;;;;;;4993958;28;20061;-40
2023/09/01 03:15:00;;;;;;;1.25;0.90;;;19.40;99.90;;;;;;4994094;28;20034;-41
2023/09/01 03:17:25;;;;;;;1.55;1.08;;;19.40;99.90;;;;;;4993850;28;20479;-35
2023/09/01 03:19:51;;;;;;;1.75;1.23;;;19.40;99.90;;;;;;4993804;28;20019;-39
2023/09/01 03:22:16;;;;;;;1.55;1.08;;;19.40;99.90;;;;;;4993830;28;20424;-38
2023/09/01 03:24:42;;;;;;;2.50;1.20;;;19.40;99.90;;;;;;4993910;28;20023;-37
2023/09/01 03:27:07;;;;;;;1.73;1.00;;;19.30;99.90;;;;;;4993873;28;20101;-35
2023/09/01 03:29:33;;;;;;;2.58;1.10;;;19.40;99.90;;;;;;4993574;28;20015;-41
2023/09/01 03:31:59;;;;;;;2.15;1.00;;;19.40;99.90;;;;;;4993543;28;20022;-38
2023/09/01 03:34:24;;;;;;;2.00;0.90;;;19.40;99.90;;;;;;4993665;28;20122;-40
2023/09/01 03:36:50;;;;;;;2.85;1.10;;;19.40;99.90;;;;;;4993661;28;20045;-38
2023/09/01 03:39:18;;;;;;;3.08;1.25;;;19.30;99.90;;;;;;4993326;28;20034;-40
2023/09/01 03:44:11;;;;;;;1.20;0.90;;;19.40;99.90;;;;;;4971441;28;20070;-39
2023/09/01 03:46:37;;;;;;;1.58;1.20;;;19.30;99.90;;;;;;4973808;28;20062;-35
2023/09/01 03:49:03;;;;;;;2.42;1.02;;;19.30;99.90;;;;;;4973830;28;20030;-35
2023/09/01 03:51:28;;;;;;;1.27;0.80;;;19.30;99.90;;;;;;4974067;28;20049;-35
2023/09/01 03:53:54;;;;;;;1.92;1.10;;;19.30;99.90;;;;;;4973846;28;20074;-37
2023/09/01 03:56:20;;;;;;;1.70;0.95;;;19.40;99.90;;;;;;4974569;28;20452;-35
2023/09/01 03:58:46;;;;;;;2.05;1.00;;;19.30;99.90;;;;;;4973694;28;20023;-39
2023/09/01 04:01:12;;;;;;;2.53;1.08;;;19.30;99.90;;;;;;4956380;28;20038;-36
2023/09/01 04:03:42;;;;;;;2.00;1.00;;;19.30;99.90;;;;;;4973685;28;20451;-35
2023/09/01 04:06:08;;;;;;;2.03;0.98;;;19.30;99.90;;;;;;4973128;28;20031;-35
2023/09/01 04:08:34;;;;;;;2.67;0.98;;;19.30;99.90;;;;;;4973367;28;20053;-36
2023/09/01 04:11:01;;;;;;;1.63;1.08;;;19.40;99.90;;;;;;4973373;28;20023;-35
2023/09/01 04:13:26;;;;;;;1.70;1.10;;;19.30;99.90;;;;;;4973465;28;20030;-38
2023/09/01 04:15:52;;;;;;;1.77;0.90;;;19.30;99.90;;;;;;4973653;28;20073;-35
2023/09/01 04:18:18;;;;;;;1.52;0.88;;;19.30;99.90;;;;;;4973426;28;20380;-36
2023/09/01 04:20:47;;;;;;;2.60;1.08;;;19.30;99.90;;;;;;4973208;28;20388;-36
2023/09/01 04:23:14;;;;;;;1.00;0.80;;;19.30;99.90;;;;;;4973314;28;20037;-37
2023/09/01 04:25:39;;;;;;;1.67;0.95;;;19.30;99.90;;;;;;4972058;28;20051;-36
2023/09/01 04:28:05;;;;;;;1.60;1.00;;;19.30;99.90;;;;;;4973351;28;20534;-41
2023/09/01 04:30:30;;;;;;;1.92;1.10;;;19.30;99.90;;;;;;4973048;28;20026;-35
2023/09/01 04:32:56;;;;;;;2.15;1.10;;;19.30;99.90;;;;;;4973185;28;20481;-35
2023/09/01 04:35:22;;;;;;;2.08;1.10;;;19.30;99.90;;;;;;4973193;28;20037;-35
2023/09/01 04:37:48;;;;;;;1.85;1.13;;;19.30;99.90;;;;;;4973094;28;20472;-37
2023/09/01 04:40:13;;;;;;;1.83;0.95;;;19.30;99.90;;;;;;4972952;28;20037;-35
2023/09/01 04:42:39;;;;;;;1.33;0.93;;;19.30;99.90;;;;;;4972996;28;20101;-36
2023/09/01 04:45:05;;;;;;;2.47;1.02;;;19.30;99.90;;;;;;4973183;28;20068;-36
2023/09/01 04:47:30;;;;;;;3.22;0.98;;;19.30;99.90;;;;;;4973023;28;20030;-36
2023/09/01 04:49:56;;;;;;;1.98;0.93;;;19.30;99.90;;;;;;4972739;28;20125;-37
2023/09/01 04:52:22;;;;;;;2.63;0.88;;;19.30;99.90;;;;;;4972912;28;20538;-35
2023/09/01 04:54:48;;;;;;;1.67;1.00;;;19.30;99.90;;;;;;4972738;28;20034;-39
2023/09/01 04:57:14;;;;;;;3.55;1.00;;;19.30;99.90;;;;;;4972761;28;20030;-35
2023/09/01 04:59:39;;;;;;;2.03;0.95;;;19.30;99.90;;;;;;4972538;28;20041;-38
2023/09/01 05:02:06;;;;;;;1.33;0.70;;;19.30;99.90;;;;;;4972692;28;20412;-37
2023/09/01 05:04:31;;;;;;;2.10;1.00;;;19.30;99.90;;;;;;4972846;28;20022;-37
2023/09/01 05:06:57;;;;;;;2.97;1.20;;;19.30;99.90;;;;;;4972639;28;20025;-36
2023/09/01 05:09:23;;;;;;;1.77;0.93;;;19.30;99.90;;;;;;4972335;28;20026;-38
2023/09/01 05:11:49;;;;;;;1.80;0.90;;;19.30;99.90;;;;;;4972637;28;20026;-35
2023/09/01 05:14:14;;;;;;;1.40;0.80;;;19.30;99.90;;;;;;4972619;28;20074;-35
2023/09/01 05:16:40;;;;;;;1.58;0.90;;;19.30;99.90;;;;;;4972658;28;20369;-35
2023/09/01 05:19:06;;;;;;;13.13;1.10;;;19.30;99.90;;;;;;4972036;28;20070;-34
2023/09/01 05:21:32;;;;;;;5.82;1.02;;;19.30;99.90;;;;;;4971639;28;20043;-35
2023/09/01 05:23:57;;;;;;;2.58;0.90;;;19.10;99.90;;;;;;4972359;28;20023;-38
2023/09/01 05:26:23;;;;;;;3.45;1.20;;;18.90;99.90;;;;;;4972529;28;20487;-35
2023/09/01 05:28:48;;;;;;;4.43;1.20;;;18.80;99.90;;;;;;4972390;28;20042;-34
2023/09/01 05:31:14;;;;;;;2.08;1.08;;;18.70;99.90;;;;;;4972408;28;20030;-35
2023/09/01 05:33:40;;;;;;;2.60;1.15;;;18.70;99.90;;;;;;4972253;28;20392;-40
2023/09/01 05:36:05;;;;;;;1.88;0.93;;;18.80;99.90;;;;;;4972484;28;20050;-35
2023/09/01 05:38:31;;;;;;;4.90;1.17;;;18.80;99.90;;;;;;4972197;28;20542;-35
2023/09/01 05:40:59;;;;;;;1.92;1.00;;;18.80;99.90;;;;;;4954867;28;20058;-35
2023/09/01 05:43:25;;;;;;;1.98;0.90;;;18.90;99.90;;;;;;4972214;28;20035;-38
2023/09/01 05:45:51;;;;;;;1.33;0.82;;;18.90;99.90;;;;;;4972410;28;20029;-38
2023/09/01 05:48:17;;;;;;;2.20;0.90;;;18.90;99.90;;;;;;4972496;28;20031;-37
2023/09/01 05:50:43;;;;;;;4.50;0.90;;;19.00;99.90;;;;;;4972091;28;20038;-34
2023/09/01 05:53:09;;;;;;;3.67;1.00;;;19.00;99.90;;;;;;4972093;28;20034;-34
2023/09/01 05:55:36;;;;;;;2.58;1.02;;;19.00;99.90;;;;;;4972301;28;20026;-36
2023/09/01 05:58:02;;;;;;;3.10;1.10;;;19.00;99.90;;;;;;4972149;28;20031;-35
2023/09/01 06:00:31;;;;;;;2.05;1.05;;;19.00;99.90;;;;;;4972048;28;20054;-34
2023/09/01 06:02:58;;;;;;;2.13;1.10;;;19.10;99.90;;;;;;4972264;28;20023;-36
2023/09/01 06:05:23;;;;;;;1.92;0.98;;;19.10;99.90;;;;;;4972234;28;20027;-37
2023/09/01 06:07:49;;;;;;;2.90;1.02;;;19.10;99.90;;;;;;4972086;28;20432;-35
2023/09/01 06:10:17;;;;;;;1.35;0.85;;;19.10;99.90;;;;;;4972009;28;20451;-35
2023/09/01 06:12:43;;;;;;;1.90;0.77;;;19.10;99.90;;;;;;4954662;28;20399;-35
2023/09/01 06:15:09;;;;;;;2.28;0.80;;;19.10;99.90;;;;;;4972054;28;20109;-35
2023/09/01 06:17:37;;;;;;;3.70;1.00;;;19.10;99.90;;;;;;4972458;28;20031;-34
2023/09/01 06:20:04;;;;;;;2.05;0.80;;;19.10;99.90;;;;;;4972333;28;20025;-35
2023/09/01 06:22:30;;;;;;;1.67;0.90;;;19.10;99.90;;;;;;4971923;28;20060;-38
2023/09/01 06:24:55;;;;;;;2.33;1.00;;;19.10;99.90;;;;;;4972054;28;20023;-35
2023/09/01 06:27:21;;;;;;;3.67;1.25;;;19.10;99.90;;;;;;4971965;28;20070;-34
2023/09/01 06:29:47;;;;;;;1.73;0.98;;;19.10;99.90;;;;;;4972628;28;20019;-35
2023/09/01 06:32:13;;;;;;;1.83;0.70;;;19.20;99.90;;;;;;4975416;28;20034;-36
2023/09/01 06:34:39;;;;;;;2.30;1.08;;;19.20;99.90;;;;;;4975374;28;20026;-36
2023/09/01 06:37:05;;;;;;;1.33;0.85;;;19.20;99.90;;;;;;4975297;28;20030;-36
2023/09/01 06:39:31;;;;;;;1.50;0.80;;;19.20;99.90;;;;;;4974973;28;20043;-38
2023/09/01 06:41:57;;;;;;;3.20;1.00;;;19.20;99.90;;;;;;4975024;28;20085;-34
2023/09/01 06:44:22;;;;;;;1.73;0.90;;;19.20;99.90;;;;;;4975289;28;20400;-34
2023/09/01 06:46:49;;;;;;;2.13;1.00;;;19.20;99.90;;;;;;4975210;28;20102;-34
2023/09/01 06:49:17;;;;;;;2.67;1.15;;;19.20;99.90;;;;;;4974899;28;20058;-34
2023/09/01 06:51:43;;;;;;;2.05;0.90;;;19.20;99.90;;;;;;4974966;28;20070;-34
2023/09/01 06:54:08;;;;;;;2.13;0.70;;;19.20;99.90;;;;;;4975061;28;20027;-34
2023/09/01 06:56:34;;;;;;;1.67;1.13;;;19.20;99.90;;;;;;4974965;28;20042;-39
2023/09/01 06:59:00;;;;;;;1.20;0.77;;;19.20;99.90;;;;;;4975040;28;20503;-37
2023/09/01 07:01:27;;;;;;;2.85;1.10;;;19.20;99.90;;;;;;4974952;28;20034;-36
2023/09/01 07:03:54;;;;;;;2.22;1.17;;;19.20;99.90;;;;;;4974630;28;20027;-38
2023/09/01 07:06:19;;;;;;;1.30;0.73;;;19.20;99.90;;;;;;4975073;28;20030;-35
2023/09/01 07:08:45;;;;;;;2.47;0.90;;;19.20;99.90;;;;;;4974677;28;20037;-35
2023/09/01 07:11:14;;;;;;;1.50;0.93;;;19.20;99.90;;;;;;4974697;28;20115;-35
2023/09/01 07:13:40;;;;;;;1.92;0.80;;;19.20;99.90;;;;;;4974634;28;20030;-35
2023/09/01 07:16:06;;;;;;;2.63;1.00;;;19.20;99.90;;;;;;4974701;28;20038;-35
2023/09/01 07:18:32;;;;;;;2.35;0.85;;;19.20;99.90;;;;;;4974459;28;20523;-35
2023/09/01 07:20:59;;;;;;;2.50;0.88;;;19.20;99.90;;;;;;4974451;28;20062;-34
2023/09/01 07:23:25;;;;;;;2.38;0.93;;;19.20;99.90;;;;;;4974465;28;20038;-35
2023/09/01 07:25:53;;;;;;;1.55;0.70;;;19.20;99.90;;;;;;4957122;28;20070;-36
2023/09/01 07:28:18;;;;;;;1.60;0.77;;;19.30;99.90;;;;;;4957109;28;20110;-35
2023/09/01 07:30:44;;;;;;;1.20;0.80;;;19.30;99.90;;;;;;4974238;28;20158;-35
2023/09/01 07:33:10;;;;;;;1.02;0.80;;;19.30;99.90;;;;;;4974273;28;20081;-36
2023/09/01 07:35:35;;;;;;;1.98;1.00;;;19.30;99.90;;;;;;4974345;28;20023;-36
2023/09/01 07:38:03;;;;;;;1.30;0.80;;;19.30;99.90;;;;;;4974233;28;20026;-38
2023/09/01 07:40:32;;;;;;;1.48;0.85;;;19.30;99.90;;;;;;4973874;28;20023;-35
2023/09/01 07:43:01;;;;;;;2.58;0.80;;;19.30;99.90;;;;;;4973973;28;20381;-35
2023/09/01 07:45:27;;;;;;;1.52;0.80;;;19.40;99.90;;;;;;4956804;28;20030;-34
2023/09/01 07:47:53;;;;;;;0.90;0.60;;;19.40;99.90;;;;;;4974069;28;20077;-35
2023/09/01 07:50:19;;;;;;;1.50;0.68;;;19.30;99.90;;;;;;4974062;28;20499;-35
2023/09/01 07:52:45;;;;;;;0.88;0.60;;;19.40;99.90;;;;;;4974076;28;20030;-35
2023/09/01 07:55:11;;;;;;;1.48;0.77;;;19.40;99.90;;;;;;4974170;28;20098;-34
2023/09/01 07:57:36;;;;;;;1.55;0.90;;;19.40;99.90;;;;;;4973854;28;20038;-35
2023/09/01 08:00:07;;;;;;;1.33;0.73;;;19.30;99.90;;;;;;4973640;28;20019;-36
2023/09/01 08:02:33;;;;;;;1.02;0.63;;;19.40;99.90;;;;;;4956416;28;20027;-34
2023/09/01 08:04:59;;;;;;;1.65;0.90;;;19.40;99.90;;;;;;4973670;28;20119;-35
2023/09/01 08:07:24;;;;;;;2.42;0.80;;;19.40;99.90;;;;;;4973851;28;20039;-35
2023/09/01 08:09:50;;;;;;;0.73;0.60;;;19.40;99.90;;;;;;4973462;28;20023;-35
2023/09/01 08:12:16;;;;;;;1.25;0.63;;;19.40;99.90;;;;;;4973566;28;20023;-34
2023/09/01 08:14:41;;;;;;;0.95;0.77;;;19.40;99.90;;;;;;4956110;28;20027;-35
2023/09/01 08:17:07;;;;;;;1.58;0.82;;;19.40;99.90;;;;;;4973534;28;20388;-36
2023/09/01 08:19:32;;;;;;;1.60;1.00;;;19.40;99.90;;;;;;4973204;28;20035;-34
2023/09/01 08:21:58;;;;;;;1.73;0.80;;;19.40;99.90;;;;;;4973404;28;20038;-34
2023/09/01 08:24:24;;;;;;;1.77;0.68;;;19.40;99.90;;;;;;4973466;28;20033;-37
2023/09/01 08:26:49;;;;;;;1.95;0.70;;;19.40;99.90;;;;;;4973355;28;20029;-37
2023/09/01 08:29:15;;;;;;;1.67;0.80;;;19.40;99.90;;;;;;4973047;28;20030;-38
2023/09/01 08:31:42;;;;;;;1.95;0.70;;;19.40;99.90;;;;;;4973073;28;20551;-36
2023/09/01 08:34:10;;;;;;;1.23;0.63;;;19.40;99.90;;;;;;4955836;28;20085;-36
2023/09/01 08:36:37;;;;;;;1.48;0.68;;;19.40;99.90;;;;;;4973308;28;20432;-35
2023/09/01 08:39:03;;;;;;;1.45;0.70;;;19.50;99.90;;;;;;4972857;28;20078;-35
2023/09/01 08:41:29;;;;;;;1.35;0.70;;;19.50;99.90;;;;;;4973065;28;20022;-34
2023/09/01 08:44:00;;;;;;;1.77;0.70;;;19.50;99.90;;;;;;4972782;28;20172;-37
2023/09/01 08:46:28;;;;;;;1.42;0.70;;;19.50;99.90;;;;;;4973114;28;20547;-35
2023/09/01 08:48:54;;;;;;;2.75;0.57;;;19.50;99.90;;;;;;4973034;28;20031;-34
2023/09/01 08:51:21;;;;;;;1.60;0.80;;;19.50;99.90;;;;;;4972918;28;20037;-34
2023/09/01 08:53:48;;;;;;;1.17;0.60;;;19.50;99.90;;;;;;4972337;28;20037;-35
2023/09/01 08:56:13;;;;;;;0.95;0.50;;;19.60;99.90;;;;;;4972864;28;20050;-34
2023/09/01 08:58:40;;;;;;;1.10;0.70;;;19.60;99.90;;;;;;4972603;28;20022;-35
2023/09/01 09:01:06;;;;;;;2.17;0.55;;;19.60;99.90;;;;;;4972853;28;20073;-36
2023/09/01 09:03:33;;;;;;;1.10;0.60;;;19.60;99.90;;;;;;4972739;28;20034;-35
2023/09/01 09:05:59;;;;;;;0.88;0.60;;;19.60;99.90;;;;;;4973059;28;20097;-35
2023/09/01 09:08:25;;;;;;;1.83;0.70;;;19.60;99.90;;;;;;4972678;28;20019;-36
2023/09/01 09:10:51;;;;;;;1.23;0.70;;;19.60;99.90;;;;;;4972945;28;20047;-34
2023/09/01 09:13:26;;;;;;;0.75;0.60;;;19.60;99.90;;;;;;4972558;28;20117;-35
2023/09/01 09:16:10;;;;;;;0.85;0.50;;;19.60;99.90;;;;;;4972938;28;20027;-35
2023/09/01 09:18:38;;;;;;;0.82;0.57;;;19.60;99.90;;;;;;4972862;28;20026;-35
2023/09/01 09:21:04;;;;;;;0.85;0.60;;;19.60;99.90;;;;;;4955160;28;20435;-35
2023/09/01 09:23:45;;;;;;;1.10;0.65;;;19.60;99.90;;;;;;4972445;28;20026;-37
2023/09/01 09:26:12;;;;;;;2.13;0.60;;;19.60;99.90;;;;;;4972630;28;20085;-34
2023/09/01 09:28:37;;;;;;;2.00;0.85;;;19.60;99.90;;;;;;4972727;28;20359;-34
2023/09/01 09:31:03;;;;;;;1.10;0.60;;;19.60;99.90;;;;;;4972292;28;20109;-35
2023/09/01 09:33:31;;;;;;;1.25;0.55;;;19.60;99.90;;;;;;4972438;28;20023;-34
2023/09/01 09:35:57;;;;;;;0.77;0.50;;;19.60;99.90;;;;;;4972433;28;20023;-34
2023/09/01 09:38:23;;;;;;;1.02;0.60;;;19.60;99.90;;;;;;4972268;28;20616;-36
2023/09/01 09:40:59;;;;;;;1.38;0.63;;;19.60;99.90;;;;;;4972222;28;20027;-34
2023/09/01 09:43:25;;;;;;;1.02;0.60;;;19.60;99.90;;;;;;5006498;23;20047;-36
2023/09/01 09:45:53;;;;;;;0.80;0.60;;;19.60;99.90;;;;;;4991500;28;20048;-35
2023/09/01 09:48:19;;;;;;;2.00;0.50;;;19.60;99.90;;;;;;4991744;28;20033;-36
2023/09/01 09:50:53;;;;;;;0.75;0.60;;;19.60;99.90;;;;;;4991541;28;20033;-36
2023/09/01 09:53:24;;;;;;;1.10;0.50;;;19.60;99.90;;;;;;4991922;28;20432;-45
2023/09/01 09:55:53;;;;;;;0.95;0.60;;;19.60;99.90;;;;;;4991702;28;20030;-34
2023/09/01 09:58:27;;;;;;;2.47;0.75;;;19.60;99.90;;;;;;4992811;28;20550;-34
2023/09/01 10:01:06;;;;;;;1.08;0.50;;;19.60;99.90;;;;;;4991595;28;20041;-39
2023/09/01 10:03:32;;;;;;;1.08;0.50;;;19.60;99.90;;;;;;4991645;28;20031;-41
2023/09/01 10:06:02;;;;;;;0.70;0.60;;;19.60;99.90;;;;;;4994105;28;20539;-39
2023/09/01 10:08:29;;;;;;;0.88;0.50;;;19.60;99.90;;;;;;4995657;28;20042;-34
2023/09/01 10:10:57;;;;;;;0.80;0.47;;;19.60;99.90;;;;;;4995189;28;20061;-36
2023/09/01 10:13:23;;;;;;;1.05;0.65;;;19.60;99.90;;;;;;4995339;28;20034;-37
2023/09/01 10:15:48;;;;;;;0.60;0.50;;;19.60;99.90;;;;;;4995272;28;20038;-34
2023/09/01 10:18:14;;;;;;;0.70;0.50;;;19.60;99.90;;;;;;4995172;28;20026;-35
2023/09/01 10:20:43;;;;;;;0.85;0.47;;;19.60;99.90;;;;;;4995003;28;20080;-37
2023/09/01 10:23:10;;;;;;;1.08;0.43;;;19.60;99.90;;;;;;4995036;28;20068;-39
2023/09/01 10:25:36;;;;;;;1.50;0.68;;;19.60;99.90;;;;;;4995138;28;20027;-39
2023/09/01 10:28:12;;;;;;;2.88;0.57;;;19.60;99.90;;;;;;4995063;28;20019;-38
2023/09/01 10:30:42;;;;;;;1.00;0.70;;;19.60;99.90;;;;;;4994807;28;20438;-37
2023/09/01 10:33:12;;;;;;;0.65;0.50;;;19.60;99.90;;;;;;4977635;28;20031;-38
2023/09/01 10:35:50;;;;;;;1.23;0.60;;;19.60;99.90;;;;;;4994992;28;20030;-34
2023/09/01 10:38:35;;;;;;;1.05;0.60;;;19.60;99.90;;;;;;4995140;28;20487;-34
2023/09/01 10:41:01;;;;;;;1.10;0.60;;;19.60;99.90;;;;;;4994627;28;20072;-37
2023/09/01 10:43:37;;;;;;;0.60;0.50;;;19.60;99.90;;;;;;4994537;28;20054;-37
2023/09/01 10:46:12;;;;;;;1.73;0.65;;;19.60;99.90;;;;;;4994665;28;20023;-39
2023/09/01 10:48:57;;;;;;;1.13;0.60;;;19.60;99.90;;;;;;4994610;28;20046;-36
2023/09/01 10:51:37;;;;;;;1.30;0.60;;;19.60;99.90;;;;;;4994546;28;20030;-38
2023/09/01 10:54:22;;;;;;;1.58;0.70;;;19.60;99.90;;;;;;4994425;28;20471;-37
2023/09/01 10:56:58;;;;;;;1.13;0.52;;;19.60;99.90;;;;;;4994425;28;20030;-38
2023/09/01 10:59:30;;;;;;;0.77;0.52;;;19.60;99.90;;;;;;4994059;28;20022;-37
2023/09/01 11:01:56;;;;;;;1.15;0.60;;;19.60;99.90;;;;;;4994449;28;20498;-38
2023/09/01 11:04:22;;;;;;;1.30;0.60;;;19.60;99.90;;;;;;4994246;28;20045;-38
2023/09/01 11:06:56;;;;;;;1.38;0.70;;;19.60;99.90;;;;;;4994269;28;20038;-36
2023/09/01 11:09:34;;;;;;;2.13;0.88;;;19.60;99.90;;;;;;4994032;28;20141;-37
2023/09/01 11:12:07;;;;;;;1.17;0.65;;;19.60;99.90;;;;;;4994093;28;20488;-36
2023/09/01 11:14:36;;;;;;;0.77;0.50;;;19.70;99.90;;;;;;4994108;28;20551;-39
2023/09/01 11:17:05;;;;;;;0.80;0.50;;;19.70;99.90;;;;;;4993714;28;20033;-36
2023/09/01 11:19:32;;;;;;;1.67;0.63;;;19.70;99.90;;;;;;4993760;28;20106;-37
2023/09/01 11:21:59;;;;;;;0.88;0.52;;;19.70;99.90;;;;;;4976720;28;20026;-34
2023/09/01 11:24:24;;;;;;;2.25;0.60;;;19.70;99.90;;;;;;4993779;28;20097;-37
2023/09/01 11:26:51;;;;;;;1.02;0.80;;;19.70;99.90;;;;;;4993957;28;20475;-39
2023/09/01 11:29:20;;;;;;;0.60;0.35;;;19.70;99.90;;;;;;4993685;28;20022;-37
2023/09/01 11:31:45;;;;;;;1.08;0.60;;;19.70;99.90;;;;;;4993824;28;20037;-39
2023/09/01 11:34:12;;;;;;;0.98;0.50;;;19.70;99.90;;;;;;4993672;28;20030;-37
2023/09/01 11:36:51;;;;;;;1.33;0.60;;;19.70;99.90;;;;;;4993766;28;20039;-41
2023/09/01 11:39:18;;;;;;;0.95;0.50;;;19.70;99.90;;;;;;4993405;28;20042;-41
2023/09/01 11:41:45;;;;;;;1.55;0.63;;;19.70;99.90;;;;;;4993598;28;20023;-39
2023/09/01 11:44:11;;;;;;;3.90;0.90;;;19.70;99.90;;;;;;4993361;28;20368;-42
2023/09/01 11:46:37;;;;;;;3.50;1.20;;;19.80;99.90;;;;;;4993520;28;20025;-39
2023/09/01 11:49:04;;;;;;;6.38;0.80;;;19.80;99.90;;;;;;4993354;28;20041;-41
2023/09/01 11:51:37;;;;;;;2.97;1.00;;;19.90;99.90;;;;;;4993396;28;20026;-39
2023/09/01 11:54:04;;;;;;;1.70;0.82;;;19.90;99.90;;;;;;4993277;28;20027;-39
2023/09/01 11:56:29;;;;;;;4.50;1.00;;;19.90;99.90;;;;;;4993393;28;20030;-39
2023/09/01 11:58:58;;;;;;;4.43;1.10;;;19.90;99.90;;;;;;4993063;28;20034;-39
2023/09/01 12:01:43;;;;;;;4.65;0.90;;;20.00;99.90;;;;;;4993279;28;20025;-39
2023/09/01 12:04:09;;;;;;;1.85;1.00;;;20.00;99.90;;;;;;4993555;28;20081;-41
2023/09/01 12:06:44;;;;;;;2.20;0.82;;;20.00;99.90;;;;;;4993078;28;20023;-39
2023/09/01 12:09:10;;;;;;;3.22;0.90;;;20.00;99.90;;;;;;4992951;28;20034;-39
2023/09/01 12:11:35;;;;;;;2.65;0.88;;;20.00;99.90;;;;;;4993106;28;20472;-39
2023/09/01 12:14:26;;;;;;;1.60;0.80;;;20.00;99.90;;;;;;4992954;28;20034;-38
2023/09/01 12:16:53;;;;;;;1.27;0.77;;;20.00;99.90;;;;;;4993210;28;20034;-39
2023/09/01 12:19:24;;;;;;;1.88;0.70;;;20.00;99.90;;;;;;4993067;28;20030;-39
2023/09/01 12:21:57;;;;;;;1.58;0.70;;;20.00;99.90;;;;;;4992904;28;20073;-39
2023/09/01 12:24:23;;;;;;;1.38;0.80;;;20.00;99.90;;;;;;4992745;28;20027;-39
2023/09/01 12:26:49;;;;;;;0.80;0.52;;;20.00;99.90;;;;;;4993387;28;20026;-40
2023/09/01 12:29:15;;;;;;;2.10;1.00;;;20.00;99.90;;;;;;4975107;28;20049;-34
2023/09/01 12:31:42;;;;;;;1.13;0.63;;;20.00;99.90;;;;;;4992873;28;20054;-39
2023/09/01 12:34:08;;;;;;;0.80;0.65;;;20.00;99.90;;;;;;4992630;28;20034;-39
2023/09/01 12:36:35;;;;;;;2.00;0.90;;;20.00;99.90;;;;;;4978393;28;20023;-38
2023/09/01 12:39:00;;;;;;;1.55;0.70;;;20.00;99.90;;;;;;4994756;28;20388;-37
2023/09/01 12:41:26;;;;;;;2.60;1.10;;;20.00;99.90;;;;;;4993387;28;20037;-37
2023/09/01 12:43:52;;;;;;;2.13;0.82;;;20.00;99.90;;;;;;4993907;28;20038;-37
2023/09/01 12:46:18;;;;;;;2.25;0.85;;;20.10;99.90;;;;;;4993493;28;20443;-38
2023/09/01 12:48:44;;;;;;;1.50;0.80;;;20.10;99.90;;;;;;4993891;28;20022;-37
2023/09/01 12:51:09;;;;;;;2.13;1.00;;;20.10;99.90;;;;;;4992470;28;20033;-39